createdAt,value
2022-12-22T00:00:27.394Z,79.77
2022-12-22T00:01:27.403Z,79.87
2022-12-22T00:02:27.634Z,79.83
2022-12-22T00:03:27.480Z,79.87
2022-12-22T00:04:28.659Z,79.77
2022-12-22T00:05:28.314Z,79.87
2022-12-22T00:06:27.292Z,79.93
2022-12-22T00:07:27.283Z,79.77
2022-12-22T00:08:27.261Z,79.96
2022-12-22T00:09:27.240Z,79.73
2022-12-22T00:10:27.238Z,79.83
2022-12-22T00:11:27.212Z,79.68
2022-12-22T00:12:27.196Z,80.16
2022-12-22T00:13:27.179Z,80.06
2022-12-22T00:14:27.162Z,79.96
2022-12-22T00:15:27.151Z,79.96
2022-12-22T00:16:27.157Z,80.25
2022-12-22T00:17:27.111Z,80.16
2022-12-22T00:18:27.100Z,80.16
2022-12-22T00:19:27.080Z,79.96
2022-12-22T00:20:27.067Z,80.16
2022-12-22T00:21:27.049Z,80.25
2022-12-22T00:22:27.035Z,80.06
2022-12-22T00:23:27.016Z,80.25
2022-12-22T00:24:27.121Z,79.96
2022-12-22T00:25:26.989Z,80.06
2022-12-22T00:26:26.971Z,80.16
2022-12-22T00:27:26.956Z,79.96
2022-12-22T00:28:26.939Z,81.02
2022-12-22T00:29:26.921Z,80.92
2022-12-22T00:30:26.909Z,80.92
2022-12-22T00:31:27.029Z,80.16
2022-12-22T00:32:26.882Z,80.44
2022-12-22T00:33:26.856Z,81.02
2022-12-22T00:34:32.340Z,80.82
2022-12-22T00:35:26.824Z,80.79
2022-12-22T00:36:26.809Z,80.92
2022-12-22T00:37:26.792Z,80.98
2022-12-22T00:38:26.778Z,80.50
2022-12-22T00:39:26.759Z,80.88
2022-12-22T00:40:26.754Z,79.93
2022-12-22T00:41:26.729Z,80.02
2022-12-22T00:42:26.724Z,80.21
2022-12-22T00:43:26.699Z,80.30
2022-12-22T00:44:26.694Z,80.02
2022-12-22T00:45:26.672Z,80.30
2022-12-22T00:46:26.675Z,80.21
2022-12-22T00:47:26.632Z,80.98
2022-12-22T00:48:26.618Z,80.21
2022-12-22T00:49:26.603Z,79.93
2022-12-22T00:50:26.586Z,79.73
2022-12-22T00:51:26.571Z,79.64
2022-12-22T00:52:26.558Z,79.93
2022-12-22T00:53:26.534Z,79.83
2022-12-22T00:54:26.520Z,79.64
2022-12-22T00:55:26.506Z,79.93
2022-12-22T00:56:26.502Z,80.02
2022-12-22T00:57:26.468Z,80.11
2022-12-22T00:58:26.456Z,79.93
2022-12-22T00:59:26.438Z,80.02
2022-12-22T01:00:26.429Z,80.11
2022-12-22T01:01:26.460Z,80.02
2022-12-22T01:02:26.589Z,80.11
2022-12-22T01:03:26.431Z,80.11
2022-12-22T01:04:26.360Z,79.83
2022-12-22T01:05:26.339Z,79.93
2022-12-22T01:06:26.325Z,80.11
2022-12-22T01:07:26.323Z,80.02
2022-12-22T01:08:26.293Z,79.93
2022-12-22T01:09:26.273Z,80.02
2022-12-22T01:10:26.264Z,79.73
2022-12-22T01:11:26.241Z,79.73
2022-12-22T01:12:26.234Z,80.02
2022-12-22T01:13:26.210Z,79.54
2022-12-22T01:14:26.194Z,79.54
2022-12-22T01:15:26.186Z,79.98
2022-12-22T01:16:26.207Z,79.93
2022-12-22T01:17:26.150Z,79.64
2022-12-22T01:18:26.127Z,79.93
2022-12-22T01:19:26.110Z,79.93
2022-12-22T01:20:26.127Z,79.93
2022-12-22T01:21:26.076Z,79.93
2022-12-22T01:22:26.064Z,80.02
2022-12-22T01:23:26.051Z,80.02
2022-12-22T01:24:26.030Z,80.11
2022-12-22T01:25:26.020Z,79.98
2022-12-22T01:26:25.997Z,79.93
2022-12-22T01:27:25.979Z,80.02
2022-12-22T01:28:25.969Z,80.84
2022-12-22T01:29:25.964Z,80.74
2022-12-22T01:30:26.009Z,80.79
2022-12-22T01:31:27.803Z,80.69
2022-12-22T01:32:26.123Z,80.55
2022-12-22T01:33:25.889Z,80.65
2022-12-22T01:34:25.868Z,80.40
2022-12-22T01:35:25.847Z,80.46
2022-12-22T01:36:25.833Z,80.55
2022-12-22T01:37:25.812Z,81.03
2022-12-22T01:38:25.797Z,80.50
2022-12-22T01:39:26.080Z,80.50
2022-12-22T01:40:25.769Z,80.46
2022-12-22T01:41:25.747Z,80.65
2022-12-22T01:42:25.732Z,80.55
2022-12-22T01:43:25.713Z,80.65
2022-12-22T01:44:25.700Z,80.69
2022-12-22T01:45:25.685Z,80.59
2022-12-22T01:46:25.872Z,80.50
2022-12-22T01:47:25.649Z,80.88
2022-12-22T01:48:25.779Z,81.07
2022-12-22T01:49:25.619Z,80.98
2022-12-22T01:50:25.603Z,81.03
2022-12-22T01:51:25.815Z,80.88
2022-12-22T01:52:25.592Z,80.79
2022-12-22T01:53:25.551Z,80.79
2022-12-22T01:54:25.535Z,81.26
2022-12-22T01:55:25.533Z,80.74
2022-12-22T01:56:25.504Z,80.79
2022-12-22T01:57:25.483Z,81.07
2022-12-22T01:58:25.474Z,81.26
2022-12-22T01:59:25.486Z,81.07
2022-12-22T02:00:25.444Z,81.16
2022-12-22T02:01:25.469Z,81.16
2022-12-22T02:02:25.503Z,81.45
2022-12-22T02:03:25.468Z,81.16
2022-12-22T02:04:25.386Z,81.16
2022-12-22T02:05:25.361Z,81.16
2022-12-22T02:06:25.336Z,81.55
2022-12-22T02:07:25.316Z,81.65
2022-12-22T02:08:25.313Z,81.36
2022-12-22T02:09:25.298Z,81.45
2022-12-22T02:10:25.278Z,81.26
2022-12-22T02:11:25.255Z,81.36
2022-12-22T02:12:25.238Z,81.26
2022-12-22T02:13:25.227Z,81.36
2022-12-22T02:14:29.934Z,81.45
2022-12-22T02:15:25.193Z,81.36
2022-12-22T02:16:25.188Z,81.36
2022-12-22T02:17:25.155Z,81.45
2022-12-22T02:18:25.139Z,81.16
2022-12-22T02:19:25.123Z,81.16
2022-12-22T02:20:25.117Z,81.16
2022-12-22T02:21:25.093Z,81.45
2022-12-22T02:22:25.072Z,81.55
2022-12-22T02:23:25.058Z,81.45
2022-12-22T02:24:25.041Z,81.55
2022-12-22T02:25:25.025Z,81.65
2022-12-22T02:26:25.006Z,81.84
2022-12-22T02:27:24.988Z,81.65
2022-12-22T02:28:24.973Z,81.74
2022-12-22T02:29:24.960Z,81.93
2022-12-22T02:30:24.946Z,81.74
2022-12-22T02:31:25.067Z,81.65
2022-12-22T02:32:24.911Z,81.84
2022-12-22T02:33:24.899Z,81.93
2022-12-22T02:34:24.876Z,81.93
2022-12-22T02:35:24.857Z,81.93
2022-12-22T02:36:24.840Z,81.65
2022-12-22T02:37:24.832Z,81.74
2022-12-22T02:38:24.808Z,81.93
2022-12-22T02:39:24.792Z,81.84
2022-12-22T02:40:24.793Z,81.84
2022-12-22T02:41:24.757Z,82.31
2022-12-22T02:42:24.744Z,81.93
2022-12-22T02:43:24.729Z,82.12
2022-12-22T02:44:24.709Z,81.93
2022-12-22T02:45:24.694Z,82.22
2022-12-22T02:46:24.725Z,82.12
2022-12-22T02:47:24.659Z,82.12
2022-12-22T02:48:24.655Z,82.12
2022-12-22T02:49:24.653Z,82.03
2022-12-22T02:50:24.619Z,81.93
2022-12-22T02:51:24.597Z,82.12
2022-12-22T02:52:24.578Z,82.03
2022-12-22T02:53:24.568Z,82.12
2022-12-22T02:54:24.545Z,82.12
2022-12-22T02:55:24.538Z,82.03
2022-12-22T02:56:24.528Z,82.03
2022-12-22T02:57:24.502Z,82.22
2022-12-22T02:58:24.480Z,82.12
2022-12-22T02:59:24.464Z,82.31
2022-12-22T03:00:24.453Z,82.41
2022-12-22T03:01:24.563Z,82.31
2022-12-22T03:02:24.532Z,82.51
2022-12-22T03:03:24.643Z,82.22
2022-12-22T03:04:24.391Z,82.51
2022-12-22T03:05:24.364Z,82.41
2022-12-22T03:06:24.357Z,82.41
2022-12-22T03:07:24.330Z,82.41
2022-12-22T03:08:24.331Z,82.41
2022-12-22T03:09:24.305Z,82.41
2022-12-22T03:10:24.291Z,82.31
2022-12-22T03:11:24.273Z,82.31
2022-12-22T03:12:24.255Z,82.31
2022-12-22T03:13:24.233Z,82.22
2022-12-22T03:14:24.230Z,82.31
2022-12-22T03:15:24.214Z,82.12
2022-12-22T03:16:24.245Z,82.22
2022-12-22T03:17:24.168Z,82.31
2022-12-22T03:18:24.158Z,82.31
2022-12-22T03:19:24.134Z,82.41
2022-12-22T03:20:24.124Z,82.31
2022-12-22T03:21:24.119Z,82.22
2022-12-22T03:22:24.089Z,82.31
2022-12-22T03:23:24.076Z,82.41
2022-12-22T03:24:24.055Z,82.31
2022-12-22T03:25:24.041Z,82.22
2022-12-22T03:26:24.022Z,82.31
2022-12-22T03:27:24.007Z,82.41
2022-12-22T03:28:23.994Z,82.31
2022-12-22T03:29:23.972Z,82.41
2022-12-22T03:30:23.967Z,82.41
2022-12-22T03:31:23.969Z,82.51
2022-12-22T03:32:23.928Z,82.31
2022-12-22T03:33:23.905Z,82.31
2022-12-22T03:34:23.892Z,82.35
2022-12-22T03:35:23.875Z,82.22
2022-12-22T03:36:23.883Z,82.22
2022-12-22T03:37:23.844Z,82.22
2022-12-22T03:38:23.831Z,82.60
2022-12-22T03:39:23.810Z,82.60
2022-12-22T03:40:23.807Z,82.03
2022-12-22T03:41:23.783Z,82.17
2022-12-22T03:42:23.765Z,82.35
2022-12-22T03:43:23.744Z,82.26
2022-12-22T03:44:23.735Z,82.31
2022-12-22T03:45:23.725Z,81.97
2022-12-22T03:46:23.786Z,81.97
2022-12-22T03:47:23.684Z,81.93
2022-12-22T03:48:23.667Z,81.78
2022-12-22T03:49:23.647Z,81.88
2022-12-22T03:50:23.632Z,82.07
2022-12-22T03:51:23.624Z,81.88
2022-12-22T03:52:23.613Z,81.97
2022-12-22T03:53:23.598Z,81.97
2022-12-22T03:54:23.573Z,81.78
2022-12-22T03:55:23.556Z,81.97
2022-12-22T03:56:23.564Z,81.78
2022-12-22T03:57:23.517Z,82.35
2022-12-22T03:58:23.505Z,81.97
2022-12-22T03:59:23.492Z,82.07
2022-12-22T04:00:23.468Z,81.88
2022-12-22T04:01:23.694Z,82.07
2022-12-22T04:02:23.544Z,81.97
2022-12-22T04:03:23.458Z,81.88
2022-12-22T04:04:23.407Z,82.07
2022-12-22T04:05:23.394Z,81.88
2022-12-22T04:06:23.376Z,81.97
2022-12-22T04:07:23.361Z,81.97
2022-12-22T04:08:23.359Z,81.97
2022-12-22T04:09:23.333Z,81.88
2022-12-22T04:10:23.316Z,81.68
2022-12-22T04:11:23.292Z,82.35
2022-12-22T04:12:23.281Z,82.26
2022-12-22T04:13:23.257Z,82.22
2022-12-22T04:14:27.982Z,82.26
2022-12-22T04:15:23.234Z,82.31
2022-12-22T04:16:23.268Z,82.41
2022-12-22T04:17:23.198Z,82.35
2022-12-22T04:18:23.183Z,82.41
2022-12-22T04:19:23.186Z,82.35
2022-12-22T04:20:23.149Z,82.41
2022-12-22T04:21:23.140Z,82.45
2022-12-22T04:22:23.121Z,82.41
2022-12-22T04:23:23.114Z,82.41
2022-12-22T04:24:23.090Z,82.51
2022-12-22T04:25:23.081Z,82.41
2022-12-22T04:26:23.051Z,82.35
2022-12-22T04:27:23.037Z,82.22
2022-12-22T04:28:23.064Z,82.45
2022-12-22T04:29:23.008Z,82.31
2022-12-22T04:30:22.984Z,82.31
2022-12-22T04:31:23.008Z,82.12
2022-12-22T04:32:22.961Z,82.31
2022-12-22T04:33:22.938Z,82.70
2022-12-22T04:34:22.926Z,82.79
2022-12-22T04:35:22.903Z,82.41
2022-12-22T04:36:22.897Z,82.41
2022-12-22T04:37:22.874Z,82.12
2022-12-22T04:38:22.874Z,82.51
2022-12-22T04:39:22.840Z,82.41
2022-12-22T04:40:22.834Z,82.31
2022-12-22T04:41:22.809Z,82.35
2022-12-22T04:42:22.792Z,82.51
2022-12-22T04:43:22.776Z,82.26
2022-12-22T04:44:22.768Z,82.45
2022-12-22T04:45:22.771Z,82.35
2022-12-22T04:46:22.790Z,82.45
2022-12-22T04:47:22.717Z,82.26
2022-12-22T04:48:22.700Z,82.26
2022-12-22T04:49:22.686Z,82.26
2022-12-22T04:50:22.662Z,82.35
2022-12-22T04:51:22.660Z,82.54
2022-12-22T04:52:22.633Z,82.45
2022-12-22T04:53:22.629Z,82.35
2022-12-22T04:54:22.600Z,82.22
2022-12-22T04:55:22.586Z,82.31
2022-12-22T04:56:22.571Z,82.03
2022-12-22T04:57:22.555Z,82.03
2022-12-22T04:58:22.533Z,81.93
2022-12-22T04:59:22.530Z,81.84
2022-12-22T05:00:22.524Z,81.93
2022-12-22T05:01:22.613Z,81.68
2022-12-22T05:02:22.641Z,81.88
2022-12-22T05:03:22.539Z,81.84
2022-12-22T05:04:24.025Z,81.84
2022-12-22T05:05:22.425Z,81.84
2022-12-22T05:06:22.407Z,82.03
2022-12-22T05:07:22.395Z,82.12
2022-12-22T05:08:22.375Z,81.74
2022-12-22T05:09:22.360Z,82.41
2022-12-22T05:10:22.351Z,82.22
2022-12-22T05:11:22.328Z,82.41
2022-12-22T05:14:46.510Z,82.89
2022-12-22T05:15:45.573Z,82.51
2022-12-22T05:16:45.315Z,82.79
2022-12-22T05:17:45.180Z,82.79
2022-12-22T05:18:45.167Z,82.51
2022-12-22T05:19:45.445Z,82.79
2022-12-22T05:20:45.887Z,82.60
2022-12-22T05:21:45.498Z,82.60
2022-12-22T05:22:45.022Z,82.41
2022-12-22T05:23:45.032Z,82.60
2022-12-22T05:24:45.002Z,82.51
2022-12-22T05:25:44.968Z,82.70
2022-12-22T05:26:44.955Z,82.51
2022-12-22T05:27:44.936Z,82.60
2022-12-22T05:28:44.919Z,82.31
2022-12-22T05:29:44.906Z,82.51
2022-12-22T05:30:44.933Z,82.31
2022-12-22T05:31:47.324Z,82.79
2022-12-22T05:32:44.856Z,82.51
2022-12-22T05:33:44.844Z,82.98
2022-12-22T05:34:44.822Z,82.60
2022-12-22T05:35:44.806Z,82.79
2022-12-22T05:36:44.805Z,83.08
2022-12-22T05:37:44.775Z,82.89
2022-12-22T05:38:44.769Z,82.79
2022-12-22T05:39:44.740Z,82.60
2022-12-22T05:40:44.726Z,83.08
2022-12-22T05:41:44.712Z,82.79
2022-12-22T05:42:44.711Z,82.98
2022-12-22T05:43:44.671Z,82.98
2022-12-22T05:44:44.667Z,82.79
2022-12-22T05:45:44.669Z,82.79
2022-12-22T05:46:44.868Z,82.60
2022-12-22T05:47:44.610Z,82.79
2022-12-22T05:48:44.596Z,82.51
2022-12-22T05:49:44.574Z,82.60
2022-12-22T05:50:44.566Z,82.79
2022-12-22T05:51:44.544Z,82.60
2022-12-22T05:52:44.529Z,82.79
2022-12-22T05:53:44.510Z,82.79
2022-12-22T05:54:44.498Z,82.70
2022-12-22T05:55:44.479Z,82.60
2022-12-22T05:56:44.461Z,82.70
2022-12-22T05:57:44.467Z,82.98
2022-12-22T05:58:44.430Z,82.60
2022-12-22T05:59:44.416Z,82.98
2022-12-22T06:00:44.400Z,82.79
2022-12-22T06:01:44.401Z,82.70
2022-12-22T06:02:44.603Z,82.98
2022-12-22T06:03:44.551Z,82.79
2022-12-22T06:04:44.339Z,82.51
2022-12-22T06:05:44.316Z,82.60
2022-12-22T06:06:44.296Z,82.79
2022-12-22T06:07:44.313Z,82.70
2022-12-22T06:08:44.288Z,82.79
2022-12-22T06:09:44.263Z,83.08
2022-12-22T06:10:44.231Z,82.79
2022-12-22T06:11:44.231Z,82.98
2022-12-22T06:12:44.208Z,82.79
2022-12-22T06:13:44.184Z,82.98
2022-12-22T06:14:44.166Z,82.79
2022-12-22T06:15:44.207Z,82.79
2022-12-22T06:16:44.138Z,82.79
2022-12-22T06:17:45.315Z,82.70
2022-12-22T06:18:44.109Z,82.60
2022-12-22T06:19:44.085Z,82.51
2022-12-22T06:20:44.091Z,83.46
2022-12-22T06:21:44.049Z,83.37
2022-12-22T06:22:44.042Z,83.46
2022-12-22T06:23:44.019Z,83.17
2022-12-22T06:24:44.004Z,83.46
2022-12-22T06:25:44.003Z,83.46
2022-12-22T06:26:44.002Z,83.56
2022-12-22T06:27:43.953Z,83.37
2022-12-22T06:28:43.943Z,83.37
2022-12-22T06:29:43.921Z,83.56
2022-12-22T06:30:43.959Z,83.37
2022-12-22T06:31:44.051Z,83.27
2022-12-22T06:32:43.893Z,83.17
2022-12-22T06:33:43.860Z,83.17
2022-12-22T06:34:43.879Z,83.37
2022-12-22T06:35:43.823Z,83.46
2022-12-22T06:36:43.811Z,83.37
2022-12-22T06:37:43.794Z,83.17
2022-12-22T06:38:43.779Z,83.17
2022-12-22T06:39:43.762Z,82.98
2022-12-22T06:40:43.742Z,82.98
2022-12-22T06:41:43.732Z,83.08
2022-12-22T06:42:43.710Z,83.46
2022-12-22T06:43:43.693Z,82.98
2022-12-22T06:44:43.677Z,83.08
2022-12-22T06:45:43.707Z,83.17
2022-12-22T06:46:43.664Z,82.98
2022-12-22T06:47:43.632Z,83.08
2022-12-22T06:48:43.616Z,83.08
2022-12-22T06:49:43.596Z,83.46
2022-12-22T06:50:43.607Z,83.08
2022-12-22T06:51:43.576Z,83.17
2022-12-22T06:52:43.559Z,83.08
2022-12-22T06:53:43.528Z,83.08
2022-12-22T06:54:43.513Z,83.56
2022-12-22T06:55:43.494Z,83.56
2022-12-22T06:56:43.481Z,83.65
2022-12-22T06:57:43.464Z,83.56
2022-12-22T06:58:43.453Z,83.46
2022-12-22T06:59:43.433Z,83.84
2022-12-22T07:00:43.415Z,84.03
2022-12-22T07:01:43.460Z,83.84
2022-12-22T07:02:43.571Z,83.94
2022-12-22T07:03:43.445Z,83.94
2022-12-22T07:04:43.351Z,83.56
2022-12-22T07:05:43.335Z,83.37
2022-12-22T07:06:43.325Z,83.65
2022-12-22T07:07:43.308Z,83.56
2022-12-22T07:08:43.289Z,83.65
2022-12-22T07:09:43.291Z,83.94
2022-12-22T07:10:43.251Z,83.65
2022-12-22T07:11:43.234Z,83.65
2022-12-22T07:12:43.229Z,83.75
2022-12-22T07:13:43.203Z,83.84
2022-12-22T07:14:43.195Z,84.03
2022-12-22T07:15:43.213Z,83.84
2022-12-22T07:16:43.171Z,83.75
2022-12-22T07:17:43.140Z,83.75
2022-12-22T07:18:43.122Z,83.75
2022-12-22T07:19:43.113Z,84.03
2022-12-22T07:20:43.090Z,83.65
2022-12-22T07:21:43.074Z,84.13
2022-12-22T07:22:43.062Z,84.13
2022-12-22T07:23:43.047Z,84.13
2022-12-22T07:24:43.031Z,84.42
2022-12-22T07:25:43.012Z,84.23
2022-12-22T07:26:43.026Z,84.23
2022-12-22T07:27:42.977Z,84.03
2022-12-22T07:28:42.967Z,84.42
2022-12-22T07:29:42.945Z,83.94
2022-12-22T07:30:42.926Z,83.94
2022-12-22T07:31:42.972Z,83.94
2022-12-22T07:32:42.895Z,84.23
2022-12-22T07:33:42.885Z,84.13
2022-12-22T07:34:42.863Z,84.13
2022-12-22T07:35:42.847Z,84.32
2022-12-22T07:36:42.827Z,84.13
2022-12-22T07:37:42.822Z,83.94
2022-12-22T07:38:42.799Z,84.03
2022-12-22T07:39:42.788Z,84.13
2022-12-22T07:40:44.985Z,84.23
2022-12-22T07:41:42.751Z,84.23
2022-12-22T07:42:42.735Z,84.23
2022-12-22T07:43:42.727Z,84.23
2022-12-22T07:44:42.701Z,84.13
2022-12-22T07:45:42.702Z,84.32
2022-12-22T07:46:42.749Z,84.13
2022-12-22T07:47:42.653Z,84.23
2022-12-22T07:48:42.647Z,84.23
2022-12-22T07:49:42.645Z,84.13
2022-12-22T07:50:42.604Z,84.03
2022-12-22T07:59:58.186Z,85.66
2022-12-22T08:02:35.325Z,85.75
